sensor_id;sensor_type;location;lat;lon;timestamp;pressure;altitude;pressure_sealevel;temperature;humidity
77227;BME280;66234;47.642;19.144;2023-11-18T00:02:25;100218.34;;;4.26;78.59
77227;BME280;66234;47.642;19.144;2023-11-18T00:05:28;100213.72;;;4.28;78.47
77227;BME280;66234;47.642;19.144;2023-11-18T00:08:30;100223.31;;;4.29;78.59
77227;BME280;66234;47.642;19.144;2023-11-18T00:11:33;100218.84;;;4.29;78.26
77227;BME280;66234;47.642;19.144;2023-11-18T00:14:36;100236.03;;;4.33;78.25
77227;BME280;66234;47.642;19.144;2023-11-18T00:17:39;100245.16;;;4.31;78.45
77227;BME280;66234;47.642;19.144;2023-11-18T00:20:42;100228.75;;;4.35;77.79
77227;BME280;66234;47.642;19.144;2023-11-18T00:23:45;100244.13;;;4.32;77.42
77227;BME280;66234;47.642;19.144;2023-11-18T00:26:48;100249.13;;;4.27;77.59
77227;BME280;66234;47.642;19.144;2023-11-18T00:29:50;100226.28;;;4.26;78.04
77227;BME280;66234;47.642;19.144;2023-11-18T00:32:54;100240.19;;;4.28;77.45
77227;BME280;66234;47.642;19.144;2023-11-18T00:35:56;100271.09;;;4.19;78.98
77227;BME280;66234;47.642;19.144;2023-11-18T00:38:59;100263.00;;;4.21;78.54
77227;BME280;66234;47.642;19.144;2023-11-18T00:42:01;100245.16;;;4.23;78.12
77227;BME280;66234;47.642;19.144;2023-11-18T00:45:04;100233.72;;;4.30;77.51
77227;BME280;66234;47.642;19.144;2023-11-18T00:48:08;100239.69;;;4.32;77.41
77227;BME280;66234;47.642;19.144;2023-11-18T00:51:11;100245.16;;;4.31;77.34
77227;BME280;66234;47.642;19.144;2023-11-18T00:54:13;100253.59;;;4.26;77.24
77227;BME280;66234;47.642;19.144;2023-11-18T00:57:16;100241.69;;;4.22;77.92
77227;BME280;66234;47.642;19.144;2023-11-18T01:00:19;100243.34;;;4.23;77.70
77227;BME280;66234;47.642;19.144;2023-11-18T01:03:24;100254.09;;;4.30;77.27
77227;BME280;66234;47.642;19.144;2023-11-18T01:06:27;100251.28;;;4.31;77.42
77227;BME280;66234;47.642;19.144;2023-11-18T01:09:30;100267.66;;;4.27;77.88
77227;BME280;66234;47.642;19.144;2023-11-18T01:12:39;100255.56;;;4.24;77.90
77227;BME280;66234;47.642;19.144;2023-11-18T01:15:42;100257.72;;;4.37;76.85
77227;BME280;66234;47.642;19.144;2023-11-18T01:18:45;100260.03;;;4.32;77.25
77227;BME280;66234;47.642;19.144;2023-11-18T01:21:48;100271.78;;;4.29;77.07
77227;BME280;66234;47.642;19.144;2023-11-18T01:24:51;100256.41;;;4.25;77.84
77227;BME280;66234;47.642;19.144;2023-11-18T01:27:53;100278.88;;;4.21;77.87
77227;BME280;66234;47.642;19.144;2023-11-18T01:30:56;100288.31;;;4.23;77.96
77227;BME280;66234;47.642;19.144;2023-11-18T01:33:59;100273.75;;;4.19;78.06
77227;BME280;66234;47.642;19.144;2023-11-18T01:37:02;100274.75;;;4.18;77.80
77227;BME280;66234;47.642;19.144;2023-11-18T01:40:05;100288.81;;;4.19;77.87
77227;BME280;66234;47.642;19.144;2023-11-18T01:43:09;100282.84;;;4.09;78.29
77227;BME280;66234;47.642;19.144;2023-11-18T01:46:16;100277.22;;;4.12;78.74
77227;BME280;66234;47.642;19.144;2023-11-18T01:49:23;100291.97;;;4.14;78.54
77227;BME280;66234;47.642;19.144;2023-11-18T01:52:27;100274.25;;;4.15;78.47
77227;BME280;66234;47.642;19.144;2023-11-18T01:55:33;100285.00;;;4.13;78.57
77227;BME280;66234;47.642;19.144;2023-11-18T01:58:36;100283.69;;;4.09;79.14
77227;BME280;66234;47.642;19.144;2023-11-18T02:01:39;100281.38;;;3.98;79.40
77227;BME280;66234;47.642;19.144;2023-11-18T02:04:45;100281.03;;;3.93;79.45
77227;BME280;66234;47.642;19.144;2023-11-18T02:07:48;100289.97;;;3.92;80.10
77227;BME280;66234;47.642;19.144;2023-11-18T02:11:20;100286.63;;;3.90;80.17
77227;BME280;66234;47.642;19.144;2023-11-18T02:14:28;100287.81;;;3.88;80.00
77227;BME280;66234;47.642;19.144;2023-11-18T02:17:31;100278.88;;;3.89;80.58
77227;BME280;66234;47.642;19.144;2023-11-18T02:20:36;100282.69;;;3.86;80.31
77227;BME280;66234;47.642;19.144;2023-11-18T02:23:41;100274.59;;;3.88;79.95
77227;BME280;66234;47.642;19.144;2023-11-18T02:26:45;100288.63;;;3.88;80.38
77227;BME280;66234;47.642;19.144;2023-11-18T02:29:48;100288.81;;;3.87;80.32
77227;BME280;66234;47.642;19.144;2023-11-18T02:32:59;100286.16;;;3.87;79.90
77227;BME280;66234;47.642;19.144;2023-11-18T02:36:20;100294.25;;;3.93;79.79
77227;BME280;66234;47.642;19.144;2023-11-18T02:39:35;100294.59;;;3.98;79.30
77227;BME280;66234;47.642;19.144;2023-11-18T02:42:44;100296.41;;;3.98;79.16
77227;BME280;66234;47.642;19.144;2023-11-18T02:45:48;100286.50;;;4.00;79.27
77227;BME280;66234;47.642;19.144;2023-11-18T02:48:51;100291.44;;;3.95;79.71
77227;BME280;66234;47.642;19.144;2023-11-18T02:51:56;100290.47;;;3.96;79.67
77227;BME280;66234;47.642;19.144;2023-11-18T02:54:59;100303.03;;;3.94;79.78
77227;BME280;66234;47.642;19.144;2023-11-18T02:58:02;100297.56;;;3.95;79.45
77227;BME280;66234;47.642;19.144;2023-11-18T03:01:08;100298.72;;;4.01;79.04
77227;BME280;66234;47.642;19.144;2023-11-18T03:04:11;100322.88;;;4.14;78.78
77227;BME280;66234;47.642;19.144;2023-11-18T03:07:16;100306.34;;;4.20;78.45
77227;BME280;66234;47.642;19.144;2023-11-18T03:10:19;100304.19;;;4.15;78.98
77227;BME280;66234;47.642;19.144;2023-11-18T03:13:25;100305.22;;;4.22;78.44
77227;BME280;66234;47.642;19.144;2023-11-18T03:16:28;100323.88;;;4.21;78.76
77227;BME280;66234;47.642;19.144;2023-11-18T03:19:31;100346.72;;;4.22;78.93
77227;BME280;66234;47.642;19.144;2023-11-18T03:22:33;100338.94;;;4.20;79.13
77227;BME280;66234;47.642;19.144;2023-11-18T03:25:36;100341.41;;;4.14;79.38
77227;BME280;66234;47.642;19.144;2023-11-18T03:28:40;100342.22;;;4.06;79.87
77227;BME280;66234;47.642;19.144;2023-11-18T03:31:42;100352.66;;;4.08;80.34
77227;BME280;66234;47.642;19.144;2023-11-18T03:34:47;100358.28;;;4.13;80.33
77227;BME280;66234;47.642;19.144;2023-11-18T03:37:49;100350.66;;;4.10;80.87
77227;BME280;66234;47.642;19.144;2023-11-18T03:40:54;100356.28;;;4.15;80.84
77227;BME280;66234;47.642;19.144;2023-11-18T03:43:58;100357.94;;;4.08;81.08
77227;BME280;66234;47.642;19.144;2023-11-18T03:47:00;100365.72;;;4.09;81.48
77227;BME280;66234;47.642;19.144;2023-11-18T03:50:05;100367.69;;;4.15;81.18
77227;BME280;66234;47.642;19.144;2023-11-18T03:53:11;100356.94;;;4.09;81.26
77227;BME280;66234;47.642;19.144;2023-11-18T03:56:17;100358.59;;;4.10;81.18
77227;BME280;66234;47.642;19.144;2023-11-18T03:59:20;100352.81;;;4.06;81.55
77227;BME280;66234;47.642;19.144;2023-11-18T04:02:23;100368.22;;;4.19;80.60
77227;BME280;66234;47.642;19.144;2023-11-18T04:05:26;100361.94;;;4.28;80.50
77227;BME280;66234;47.642;19.144;2023-11-18T04:08:29;100358.78;;;4.32;80.56
77227;BME280;66234;47.642;19.144;2023-11-18T04:11:31;100384.75;;;4.29;80.39
77227;BME280;66234;47.642;19.144;2023-11-18T04:14:34;100370.53;;;4.30;79.87
77227;BME280;66234;47.642;19.144;2023-11-18T04:17:36;100372.00;;;4.24;80.62
77227;BME280;66234;47.642;19.144;2023-11-18T04:20:40;100381.78;;;4.24;80.63
77227;BME280;66234;47.642;19.144;2023-11-18T04:23:43;100386.72;;;4.19;80.94
77227;BME280;66234;47.642;19.144;2023-11-18T04:26:49;100380.75;;;4.17;81.53
77227;BME280;66234;47.642;19.144;2023-11-18T04:29:51;100379.13;;;4.24;81.23
77227;BME280;66234;47.642;19.144;2023-11-18T04:32:54;100377.63;;;4.21;81.34
77227;BME280;66234;47.642;19.144;2023-11-18T04:35:57;100379.44;;;4.13;81.91
77227;BME280;66234;47.642;19.144;2023-11-18T04:38:59;100386.06;;;4.17;81.98
77227;BME280;66234;47.642;19.144;2023-11-18T04:42:02;100394.50;;;4.20;81.15
77227;BME280;66234;47.642;19.144;2023-11-18T04:45:05;100385.91;;;4.26;81.17
77227;BME280;66234;47.642;19.144;2023-11-18T04:48:08;100395.66;;;4.26;80.86
77227;BME280;66234;47.642;19.144;2023-11-18T04:51:11;100389.06;;;4.38;79.96
77227;BME280;66234;47.642;19.144;2023-11-18T04:54:14;100395.69;;;4.42;80.36
77227;BME280;66234;47.642;19.144;2023-11-18T04:57:17;100385.09;;;4.42;80.05
77227;BME280;66234;47.642;19.144;2023-11-18T05:00:20;100381.78;;;4.40;79.58
77227;BME280;66234;47.642;19.144;2023-11-18T05:03:23;100405.94;;;4.45;79.44
77227;BME280;66234;47.642;19.144;2023-11-18T05:06:27;100403.28;;;4.37;79.66
77227;BME280;66234;47.642;19.144;2023-11-18T05:09:29;100423.47;;;4.46;79.67
77227;BME280;66234;47.642;19.144;2023-11-18T05:12:32;100409.94;;;4.41;79.76
77227;BME280;66234;47.642;19.144;2023-11-18T05:15:35;100422.97;;;4.50;79.15
77227;BME280;66234;47.642;19.144;2023-11-18T05:18:39;100395.34;;;4.45;79.80
77227;BME280;66234;47.642;19.144;2023-11-18T05:21:43;100417.34;;;4.53;79.26
77227;BME280;66234;47.642;19.144;2023-11-18T05:24:46;100406.28;;;4.58;79.12
77227;BME280;66234;47.642;19.144;2023-11-18T05:27:50;100407.44;;;4.55;79.46
77227;BME280;66234;47.642;19.144;2023-11-18T05:30:52;100421.00;;;4.52;80.36
77227;BME280;66234;47.642;19.144;2023-11-18T05:33:55;100418.19;;;4.46;80.90
77227;BME280;66234;47.642;19.144;2023-11-18T05:36:57;100415.38;;;4.47;81.23
77227;BME280;66234;47.642;19.144;2023-11-18T05:40:02;100409.28;;;4.47;81.02
77227;BME280;66234;47.642;19.144;2023-11-18T05:43:08;100410.25;;;4.46;80.72
77227;BME280;66234;47.642;19.144;2023-11-18T05:46:18;100426.66;;;4.57;80.01
77227;BME280;66234;47.642;19.144;2023-11-18T05:49:25;100425.81;;;4.57;80.24
77227;BME280;66234;47.642;19.144;2023-11-18T05:52:28;100414.88;;;4.52;80.36
77227;BME280;66234;47.642;19.144;2023-11-18T05:55:30;100439.38;;;4.54;80.60
77227;BME280;66234;47.642;19.144;2023-11-18T05:58:33;100437.91;;;4.51;80.53
77227;BME280;66234;47.642;19.144;2023-11-18T06:01:36;100419.69;;;4.48;80.58
77227;BME280;66234;47.642;19.144;2023-11-18T06:04:42;100444.69;;;4.54;80.03
77227;BME280;66234;47.642;19.144;2023-11-18T06:07:44;100434.75;;;4.56;80.02
77227;BME280;66234;47.642;19.144;2023-11-18T06:10:47;100433.09;;;4.55;80.30
77227;BME280;66234;47.642;19.144;2023-11-18T06:13:52;100422.81;;;4.52;80.39
77227;BME280;66234;47.642;19.144;2023-11-18T06:16:54;100429.44;;;4.48;80.80
77227;BME280;66234;47.642;19.144;2023-11-18T06:19:58;100411.59;;;4.50;80.95
77227;BME280;66234;47.642;19.144;2023-11-18T06:23:01;100419.69;;;4.48;81.51
77227;BME280;66234;47.642;19.144;2023-11-18T06:26:04;100430.59;;;4.53;80.89
77227;BME280;66234;47.642;19.144;2023-11-18T06:29:06;100437.41;;;4.56;80.99
77227;BME280;66234;47.642;19.144;2023-11-18T06:32:09;100449.97;;;4.54;80.50
77227;BME280;66234;47.642;19.144;2023-11-18T06:35:12;100459.91;;;4.60;79.83
77227;BME280;66234;47.642;19.144;2023-11-18T06:38:17;100439.91;;;4.65;79.83
77227;BME280;66234;47.642;19.144;2023-11-18T06:41:22;100445.69;;;4.61;80.10
77227;BME280;66234;47.642;19.144;2023-11-18T06:44:37;100434.94;;;4.62;80.26
77227;BME280;66234;47.642;19.144;2023-11-18T06:47:40;100447.84;;;4.57;80.24
77227;BME280;66234;47.642;19.144;2023-11-18T06:50:48;100442.38;;;4.59;80.28
77227;BME280;66234;47.642;19.144;2023-11-18T06:53:51;100450.63;;;4.72;79.55
77227;BME280;66234;47.642;19.144;2023-11-18T06:56:53;100461.41;;;4.78;78.12
77227;BME280;66234;47.642;19.144;2023-11-18T06:59:56;100471.00;;;4.87;78.00
77227;BME280;66234;47.642;19.144;2023-11-18T07:02:58;100475.81;;;4.92;77.80
77227;BME280;66234;47.642;19.144;2023-11-18T07:06:04;100486.25;;;4.93;77.74
77227;BME280;66234;47.642;19.144;2023-11-18T07:09:09;100494.03;;;4.95;76.99
77227;BME280;66234;47.642;19.144;2023-11-18T07:12:16;100496.53;;;5.04;77.12
77227;BME280;66234;47.642;19.144;2023-11-18T07:15:18;100489.91;;;5.00;77.42
77227;BME280;66234;47.642;19.144;2023-11-18T07:18:21;100486.41;;;5.00;77.44
77227;BME280;66234;47.642;19.144;2023-11-18T07:21:24;100493.22;;;5.02;76.72
77227;BME280;66234;47.642;19.144;2023-11-18T07:24:27;100498.66;;;5.09;76.80
77227;BME280;66234;47.642;19.144;2023-11-18T07:27:33;100509.28;;;5.09;76.50
77227;BME280;66234;47.642;19.144;2023-11-18T07:30:37;100501.00;;;5.12;76.97
77227;BME280;66234;47.642;19.144;2023-11-18T07:33:39;100504.97;;;5.16;76.57
77227;BME280;66234;47.642;19.144;2023-11-18T07:36:46;100505.31;;;5.21;75.85
77227;BME280;66234;47.642;19.144;2023-11-18T07:39:49;100515.59;;;5.24;75.72
77227;BME280;66234;47.642;19.144;2023-11-18T07:42:52;100528.84;;;5.24;75.71
77227;BME280;66234;47.642;19.144;2023-11-18T07:45:55;100493.53;;;5.32;75.70
77227;BME280;66234;47.642;19.144;2023-11-18T07:48:58;100499.50;;;5.34;74.92
77227;BME280;66234;47.642;19.144;2023-11-18T07:52:01;100495.84;;;5.43;74.45
77227;BME280;66234;47.642;19.144;2023-11-18T07:55:04;100501.78;;;5.45;74.16
77227;BME280;66234;47.642;19.144;2023-11-18T07:58:11;100491.19;;;5.45;74.57
77227;BME280;66234;47.642;19.144;2023-11-18T08:01:14;100509.09;;;5.51;74.25
77227;BME280;66234;47.642;19.144;2023-11-18T08:04:19;100498.50;;;5.51;73.50
77227;BME280;66234;47.642;19.144;2023-11-18T08:07:23;100504.09;;;5.56;73.59
77227;BME280;66234;47.642;19.144;2023-11-18T08:10:25;100504.59;;;5.59;73.30
77227;BME280;66234;47.642;19.144;2023-11-18T08:13:28;100512.88;;;5.64;73.66
77227;BME280;66234;47.642;19.144;2023-11-18T08:16:31;100511.22;;;5.63;73.39
77227;BME280;66234;47.642;19.144;2023-11-18T08:19:35;100513.84;;;5.71;72.92
77227;BME280;66234;47.642;19.144;2023-11-18T08:22:38;100514.00;;;5.70;72.46
77227;BME280;66234;47.642;19.144;2023-11-18T08:25:40;100513.00;;;5.79;72.37
77227;BME280;66234;47.642;19.144;2023-11-18T08:28:43;100519.81;;;5.73;71.96
77227;BME280;66234;47.642;19.144;2023-11-18T08:31:45;100517.50;;;5.78;72.47
77227;BME280;66234;47.642;19.144;2023-11-18T08:34:50;100524.63;;;5.86;71.76
77227;BME280;66234;47.642;19.144;2023-11-18T08:37:53;100516.16;;;5.90;71.30
77227;BME280;66234;47.642;19.144;2023-11-18T08:40:56;100517.81;;;5.91;71.43
77227;BME280;66234;47.642;19.144;2023-11-18T08:43:58;100527.72;;;5.97;70.99
77227;BME280;66234;47.642;19.144;2023-11-18T08:47:19;100554.16;;;5.91;71.17
77227;BME280;66234;47.642;19.144;2023-11-18T08:50:22;100547.31;;;5.96;71.45
77227;BME280;66234;47.642;19.144;2023-11-18T08:53:28;100533.38;;;6.02;71.34
77227;BME280;66234;47.642;19.144;2023-11-18T08:56:30;100518.88;;;6.13;70.89
77227;BME280;66234;47.642;19.144;2023-11-18T08:59:37;100526.16;;;6.19;70.51
77227;BME280;66234;47.642;19.144;2023-11-18T09:02:40;100532.31;;;6.19;70.37
77227;BME280;66234;47.642;19.144;2023-11-18T09:06:00;100529.28;;;6.30;67.89
77227;BME280;66234;47.642;19.144;2023-11-18T09:09:06;100533.56;;;6.31;69.28
77227;BME280;66234;47.642;19.144;2023-11-18T09:12:13;100532.72;;;6.39;69.91
77227;BME280;66234;47.642;19.144;2023-11-18T09:15:16;100538.84;;;6.39;69.96
77227;BME280;66234;47.642;19.144;2023-11-18T09:18:25;100534.34;;;6.48;69.21
77227;BME280;66234;47.642;19.144;2023-11-18T09:21:28;100522.84;;;6.55;69.27
77227;BME280;66234;47.642;19.144;2023-11-18T09:24:32;100530.34;;;6.52;68.28
77227;BME280;66234;47.642;19.144;2023-11-18T09:27:36;100539.13;;;6.52;68.51
77227;BME280;66234;47.642;19.144;2023-11-18T09:30:45;100566.16;;;6.56;68.93
77227;BME280;66234;47.642;19.144;2023-11-18T09:33:59;100520.53;;;6.52;67.98
77227;BME280;66234;47.642;19.144;2023-11-18T09:37:02;100521.66;;;6.58;68.67
77227;BME280;66234;47.642;19.144;2023-11-18T09:40:08;100518.00;;;6.59;68.81
77227;BME280;66234;47.642;19.144;2023-11-18T09:43:13;100518.34;;;6.56;68.29
77227;BME280;66234;47.642;19.144;2023-11-18T09:46:25;100530.25;;;6.68;69.36
77227;BME280;66234;47.642;19.144;2023-11-18T09:49:39;100531.53;;;6.72;69.45
77227;BME280;66234;47.642;19.144;2023-11-18T09:52:48;100540.53;;;6.71;69.51
77227;BME280;66234;47.642;19.144;2023-11-18T09:56:06;100547.34;;;6.65;68.79
77227;BME280;66234;47.642;19.144;2023-11-18T10:02:33;100564.63;;;6.69;68.71
77227;BME280;66234;47.642;19.144;2023-11-18T10:05:36;100548.16;;;6.74;69.24
77227;BME280;66234;47.642;19.144;2023-11-18T10:08:39;100543.63;;;6.74;67.86
77227;BME280;66234;47.642;19.144;2023-11-18T10:11:43;100567.47;;;6.91;67.52
77227;BME280;66234;47.642;19.144;2023-11-18T10:14:49;100548.56;;;6.86;67.57
77227;BME280;66234;47.642;19.144;2023-11-18T10:17:54;100569.06;;;6.77;67.99
77227;BME280;66234;47.642;19.144;2023-11-18T10:21:03;100569.72;;;6.79;67.86
77227;BME280;66234;47.642;19.144;2023-11-18T10:24:14;100560.72;;;6.80;67.23
77227;BME280;66234;47.642;19.144;2023-11-18T10:27:17;100547.84;;;6.92;67.00
77227;BME280;66234;47.642;19.144;2023-11-18T10:30:21;100543.97;;;7.02;66.68
77227;BME280;66234;47.642;19.144;2023-11-18T10:33:25;100556.22;;;7.11;66.49
77227;BME280;66234;47.642;19.144;2023-11-18T10:36:33;100553.75;;;7.24;65.65
77227;BME280;66234;47.642;19.144;2023-11-18T10:39:38;100555.69;;;7.16;65.51
77227;BME280;66234;47.642;19.144;2023-11-18T10:42:41;100554.72;;;7.09;65.72
77227;BME280;66234;47.642;19.144;2023-11-18T10:45:46;100542.69;;;7.21;65.46
77227;BME280;66234;47.642;19.144;2023-11-18T10:48:50;100567.19;;;7.31;64.85
77227;BME280;66234;47.642;19.144;2023-11-18T10:51:53;100562.66;;;7.39;63.96
77227;BME280;66234;47.642;19.144;2023-11-18T10:54:55;100550.31;;;7.38;64.10
77227;BME280;66234;47.642;19.144;2023-11-18T10:57:58;100552.13;;;7.23;64.88
77227;BME280;66234;47.642;19.144;2023-11-18T11:01:05;100538.59;;;7.33;65.54
77227;BME280;66234;47.642;19.144;2023-11-18T11:04:10;100535.38;;;7.37;64.46
77227;BME280;66234;47.642;19.144;2023-11-18T11:07:12;100531.41;;;7.33;64.49
77227;BME280;66234;47.642;19.144;2023-11-18T11:10:17;100550.19;;;7.17;64.20
77227;BME280;66234;47.642;19.144;2023-11-18T11:13:28;100551.34;;;7.37;64.58
77227;BME280;66234;47.642;19.144;2023-11-18T11:16:40;100546.25;;;7.28;63.67
77227;BME280;66234;47.642;19.144;2023-11-18T11:30:45;100590.34;;;7.45;63.38
77227;BME280;66234;47.642;19.144;2023-11-18T11:34:03;100621.06;;;7.47;62.60
77227;BME280;66234;47.642;19.144;2023-11-18T11:37:11;100582.72;;;7.42;63.26
77227;BME280;66234;47.642;19.144;2023-11-18T11:40:14;100584.84;;;7.46;62.92
77227;BME280;66234;47.642;19.144;2023-11-18T11:43:24;100568.66;;;7.56;62.72
77227;BME280;66234;47.642;19.144;2023-11-18T11:46:30;100573.00;;;7.49;61.43
77227;BME280;66234;47.642;19.144;2023-11-18T11:49:44;100588.53;;;7.45;63.07
77227;BME280;66234;47.642;19.144;2023-11-18T11:52:53;100591.00;;;7.47;63.31
77227;BME280;66234;47.642;19.144;2023-11-18T11:56:02;100606.09;;;7.69;62.75
77227;BME280;66234;47.642;19.144;2023-11-18T11:59:09;100625.00;;;7.59;62.71
77227;BME280;66234;47.642;19.144;2023-11-18T12:02:14;100604.09;;;7.71;63.23
77227;BME280;66234;47.642;19.144;2023-11-18T12:05:19;100615.25;;;7.89;62.69
77227;BME280;66234;47.642;19.144;2023-11-18T12:08:22;100618.13;;;8.16;61.98
77227;BME280;66234;47.642;19.144;2023-11-18T12:11:25;100624.31;;;7.80;62.42
77227;BME280;66234;47.642;19.144;2023-11-18T12:14:32;100607.81;;;7.99;62.52
77227;BME280;66234;47.642;19.144;2023-11-18T12:21:02;100638.81;;;7.77;61.30
77227;BME280;66234;47.642;19.144;2023-11-18T12:24:17;100647.63;;;7.55;62.91
77227;BME280;66234;47.642;19.144;2023-11-18T12:30:44;100652.72;;;7.65;62.96
77227;BME280;66234;47.642;19.144;2023-11-18T12:40:56;100635.22;;;8.07;60.22
77227;BME280;66234;47.642;19.144;2023-11-18T12:47:24;100643.63;;;7.96;60.00
77227;BME280;66234;47.642;19.144;2023-11-18T12:50:33;100641.94;;;8.62;57.83
77227;BME280;66234;47.642;19.144;2023-11-18T12:53:38;100655.09;;;8.92;56.37
77227;BME280;66234;47.642;19.144;2023-11-18T12:56:41;100681.03;;;8.69;56.94
77227;BME280;66234;47.642;19.144;2023-11-18T12:59:46;100654.19;;;9.21;55.68
77227;BME280;66234;47.642;19.144;2023-11-18T13:02:49;100660.31;;;9.00;56.01
77227;BME280;66234;47.642;19.144;2023-11-18T13:05:52;100664.47;;;8.59;56.36
77227;BME280;66234;47.642;19.144;2023-11-18T13:08:55;100667.47;;;9.00;54.50
77227;BME280;66234;47.642;19.144;2023-11-18T13:11:59;100699.13;;;8.88;54.48
77227;BME280;66234;47.642;19.144;2023-11-18T13:15:07;100674.16;;;9.10;54.94
77227;BME280;66234;47.642;19.144;2023-11-18T13:18:11;100659.56;;;8.92;55.37
77227;BME280;66234;47.642;19.144;2023-11-18T13:21:16;100676.56;;;9.05;54.97
77227;BME280;66234;47.642;19.144;2023-11-18T13:24:18;100667.94;;;9.03;54.38
77227;BME280;66234;47.642;19.144;2023-11-18T13:27:21;100671.47;;;9.25;54.48
77227;BME280;66234;47.642;19.144;2023-11-18T13:30:25;100692.84;;;8.38;56.16
77227;BME280;66234;47.642;19.144;2023-11-18T13:33:27;100674.03;;;8.83;55.25
77227;BME280;66234;47.642;19.144;2023-11-18T13:36:30;100684.53;;;8.18;56.26
77227;BME280;66234;47.642;19.144;2023-11-18T13:39:34;100691.78;;;8.32;56.60
77227;BME280;66234;47.642;19.144;2023-11-18T13:42:37;100679.09;;;8.49;56.84
77227;BME280;66234;47.642;19.144;2023-11-18T13:45:41;100685.25;;;8.49;56.52
77227;BME280;66234;47.642;19.144;2023-11-18T13:48:48;100687.59;;;9.02;54.78
77227;BME280;66234;47.642;19.144;2023-11-18T13:51:54;100701.78;;;9.03;54.37
77227;BME280;66234;47.642;19.144;2023-11-18T13:54:58;100711.34;;;8.97;53.99
77227;BME280;66234;47.642;19.144;2023-11-18T13:58:02;100695.88;;;9.07;53.29
77227;BME280;66234;47.642;19.144;2023-11-18T14:01:08;100705.47;;;8.73;54.17
77227;BME280;66234;47.642;19.144;2023-11-18T14:04:13;100697.56;;;8.50;55.60
77227;BME280;66234;47.642;19.144;2023-11-18T14:07:16;100703.88;;;8.93;54.56
77227;BME280;66234;47.642;19.144;2023-11-18T14:10:20;100696.28;;;8.61;56.22
77227;BME280;66234;47.642;19.144;2023-11-18T14:13:23;100699.88;;;8.53;56.21
77227;BME280;66234;47.642;19.144;2023-11-18T14:16:26;100718.66;;;8.37;56.99
77227;BME280;66234;47.642;19.144;2023-11-18T14:19:28;100713.38;;;8.14;58.27
77227;BME280;66234;47.642;19.144;2023-11-18T14:22:34;100726.38;;;8.09;57.93
77227;BME280;66234;47.642;19.144;2023-11-18T14:25:38;100708.75;;;8.08;58.67
77227;BME280;66234;47.642;19.144;2023-11-18T14:28:41;100722.19;;;8.15;58.31
77227;BME280;66234;47.642;19.144;2023-11-18T14:31:45;100741.56;;;7.86;59.61
77227;BME280;66234;47.642;19.144;2023-11-18T14:34:47;100725.44;;;7.35;61.04
77227;BME280;66234;47.642;19.144;2023-11-18T14:37:51;100730.88;;;7.11;62.15
77227;BME280;66234;47.642;19.144;2023-11-18T14:40:54;100737.09;;;6.87;62.99
77227;BME280;66234;47.642;19.144;2023-11-18T14:43:59;100742.50;;;6.63;63.85
77227;BME280;66234;47.642;19.144;2023-11-18T14:47:03;100741.72;;;6.46;65.01
77227;BME280;66234;47.642;19.144;2023-11-18T14:50:08;100744.53;;;6.21;65.78
77227;BME280;66234;47.642;19.144;2023-11-18T14:53:20;100757.31;;;6.17;65.84
77227;BME280;66234;47.642;19.144;2023-11-18T14:56:23;100772.75;;;6.06;66.43
77227;BME280;66234;47.642;19.144;2023-11-18T14:59:25;100761.63;;;5.94;67.28
77227;BME280;66234;47.642;19.144;2023-11-18T15:02:28;100766.91;;;5.86;68.00
77227;BME280;66234;47.642;19.144;2023-11-18T15:05:31;100763.25;;;5.79;68.31
77227;BME280;66234;47.642;19.144;2023-11-18T15:08:33;100785.97;;;5.82;68.82
77227;BME280;66234;47.642;19.144;2023-11-18T15:11:42;100782.28;;;5.67;68.96
77227;BME280;66234;47.642;19.144;2023-11-18T15:14:45;100795.34;;;5.60;69.12
77227;BME280;66234;47.642;19.144;2023-11-18T15:17:48;100795.03;;;5.55;69.83
77227;BME280;66234;47.642;19.144;2023-11-18T15:20:51;100792.50;;;5.46;70.02
77227;BME280;66234;47.642;19.144;2023-11-18T15:23:54;100787.38;;;5.44;69.97
77227;BME280;66234;47.642;19.144;2023-11-18T15:27:01;100791.47;;;5.39;70.30
77227;BME280;66234;47.642;19.144;2023-11-18T15:30:07;100791.16;;;5.34;70.32
77227;BME280;66234;47.642;19.144;2023-11-18T15:33:12;100796.47;;;5.34;70.07
77227;BME280;66234;47.642;19.144;2023-11-18T15:36:16;100798.78;;;5.37;69.54
77227;BME280;66234;47.642;19.144;2023-11-18T15:39:18;100812.81;;;5.29;69.81
77227;BME280;66234;47.642;19.144;2023-11-18T15:42:21;100808.19;;;5.31;69.70
77227;BME280;66234;47.642;19.144;2023-11-18T15:45:23;100809.16;;;5.22;69.95
77227;BME280;66234;47.642;19.144;2023-11-18T15:48:29;100810.63;;;5.17;70.09
77227;BME280;66234;47.642;19.144;2023-11-18T15:51:33;100811.97;;;5.21;69.33
77227;BME280;66234;47.642;19.144;2023-11-18T15:54:36;100811.13;;;5.20;69.31
77227;BME280;66234;47.642;19.144;2023-11-18T15:57:46;100814.72;;;5.11;69.43
77227;BME280;66234;47.642;19.144;2023-11-18T16:00:55;100805.19;;;5.18;69.17
77227;BME280;66234;47.642;19.144;2023-11-18T16:03:58;100819.25;;;5.19;69.09
77227;BME280;66234;47.642;19.144;2023-11-18T16:07:00;100819.03;;;5.12;69.33
77227;BME280;66234;47.642;19.144;2023-11-18T16:10:03;100821.56;;;5.14;68.94
77227;BME280;66234;47.642;19.144;2023-11-18T16:13:06;100822.22;;;5.16;68.63
77227;BME280;66234;47.642;19.144;2023-11-18T16:16:09;100821.66;;;5.04;69.73
77227;BME280;66234;47.642;19.144;2023-11-18T16:19:13;100834.91;;;5.04;69.76
77227;BME280;66234;47.642;19.144;2023-11-18T16:22:15;100832.75;;;4.99;69.44
77227;BME280;66234;47.642;19.144;2023-11-18T16:25:28;100818.28;;;4.94;69.85
77227;BME280;66234;47.642;19.144;2023-11-18T16:28:32;100824.28;;;4.96;69.77
77227;BME280;66234;47.642;19.144;2023-11-18T16:31:34;100833.66;;;4.90;69.79
77227;BME280;66234;47.642;19.144;2023-11-18T16:34:37;100835.81;;;4.87;69.58
77227;BME280;66234;47.642;19.144;2023-11-18T16:37:41;100837.41;;;4.80;70.07